Shokokon, Illinois
Current Conditions -  °F | °C
As of 9:53 AM on Wednesday 28 Jan 2015 (Local Time) from KBRL Reporting Station
Clear Clear  
Wind Chill: 23°   Ceiling: Unl
Heat Index: 33°   Visibility: 8mi
Dew Point: 27°   Wind: 16mph
Humidity: 78%   Direction: 140°SE
Pressure: 30.11"   Gusts: NA
Location:  40.7646°N, 91.0498°W
Report Text: KBRL 281553Z AUTO 14014KT 8SM CLR 01/M03 A3011 RMK AO2 SLP202 T00061028
Loading
Personal Weather Stations






























Interactive Weather Map New forecast layout! Learn more

10-Day Weather Forecast

Advertisements
Track Severe Weather on mobile